createdAt,value
2018-08-12T00:00:48.100Z,1016.09
2018-08-12T00:01:48.161Z,1016.08
2018-08-12T00:02:48.170Z,1016.09
2018-08-12T00:03:48.138Z,1016.08
2018-08-12T00:04:48.197Z,1016.04
2018-08-12T00:05:48.212Z,1016.09
2018-08-12T00:06:48.197Z,1016.13
2018-08-12T00:07:48.237Z,1016.07
2018-08-12T00:08:48.211Z,1016.05
2018-08-12T00:09:48.224Z,1016.08
2018-08-12T00:10:48.232Z,1016.07
2018-08-12T00:11:48.228Z,1016.08
2018-08-12T00:12:48.297Z,1016.07
2018-08-12T00:13:48.305Z,1016.05
2018-08-12T00:14:48.274Z,1016.02
2018-08-12T00:15:48.291Z,1016.05
2018-08-12T00:16:48.333Z,1016.06
2018-08-12T00:17:48.300Z,1016.03
2018-08-12T00:18:48.367Z,1016.03
2018-08-12T00:19:48.319Z,1016.11
2018-08-12T00:20:48.353Z,1016.11
2018-08-12T00:21:48.355Z,1016.08
2018-08-12T00:22:48.349Z,1016.09
2018-08-12T00:23:48.426Z,1016.12
2018-08-12T00:24:48.416Z,1016.06
2018-08-12T00:25:48.449Z,1016.07
2018-08-12T00:26:48.390Z,1016.08
2018-08-12T00:27:48.440Z,1016.07
2018-08-12T00:28:48.411Z,1016.10
2018-08-12T00:29:48.413Z,1016.10
2018-08-12T00:30:48.504Z,1016.07
2018-08-12T00:31:48.479Z,1016.09
2018-08-12T00:32:48.487Z,1016.06
2018-08-12T00:33:48.481Z,1016.06
2018-08-12T00:34:48.490Z,1016.05
2018-08-12T00:35:48.564Z,1016.04
2018-08-12T00:36:48.568Z,1016.06
2018-08-12T00:37:48.525Z,1016.05
2018-08-12T00:38:48.543Z,1016.03
2018-08-12T00:39:48.539Z,1016.01
2018-08-12T00:40:48.555Z,1016.04
2018-08-12T00:41:48.594Z,1016.07
2018-08-12T00:42:48.580Z,1016.06
2018-08-12T00:43:48.676Z,1016.01
2018-08-12T00:44:48.610Z,1016.05
2018-08-12T00:45:48.611Z,1016.05
2018-08-12T00:46:48.632Z,1016.11
2018-08-12T00:47:48.639Z,1016.08
2018-08-12T00:48:48.667Z,1016.08
2018-08-12T00:49:48.695Z,1016.08
2018-08-12T00:50:48.675Z,1016.05
2018-08-12T00:51:48.699Z,1016.05
2018-08-12T00:52:48.731Z,1016.06
2018-08-12T00:53:48.722Z,1016.00
2018-08-12T00:54:48.725Z,1016.04
2018-08-12T00:55:48.735Z,1016.05
2018-08-12T00:56:48.735Z,1016.03
2018-08-12T00:57:48.803Z,1016.09
2018-08-12T00:58:48.764Z,1016.03
2018-08-12T00:59:48.760Z,1016.03
2018-08-12T01:00:48.809Z,1016.03
2018-08-12T01:01:48.779Z,1016.03
2018-08-12T01:02:48.835Z,1016.03
2018-08-12T01:03:48.816Z,1016.03
2018-08-12T01:04:48.824Z,1016.01
2018-08-12T01:05:48.840Z,1016.03
2018-08-12T01:06:48.822Z,1016.04
2018-08-12T01:07:48.859Z,1016.00
2018-08-12T01:08:48.920Z,1016.04
2018-08-12T01:09:48.863Z,1016.04
2018-08-12T01:10:48.907Z,1016.04
2018-08-12T01:11:48.909Z,1016.07
2018-08-12T01:12:48.908Z,1016.08
2018-08-12T01:13:48.930Z,1016.05
2018-08-12T01:14:48.997Z,1016.06
2018-08-12T01:15:48.944Z,1016.01
2018-08-12T01:16:48.952Z,1016.04
2018-08-12T01:17:48.994Z,1016.07
2018-08-12T01:18:48.984Z,1016.06
2018-08-12T01:19:48.991Z,1016.08
2018-08-12T01:20:49.007Z,1016.05
2018-08-12T01:21:49.006Z,1016.06
2018-08-12T01:22:49.050Z,1016.03
2018-08-12T01:23:49.026Z,1016.03
2018-08-12T01:24:49.029Z,1016.05
2018-08-12T01:25:49.087Z,1016.05
2018-08-12T01:26:49.055Z,1016.04
2018-08-12T01:27:49.069Z,1016.01
2018-08-12T01:28:49.084Z,1016.02
2018-08-12T01:29:49.121Z,1016.00
2018-08-12T01:30:49.145Z,1016.00
2018-08-12T01:31:49.097Z,1015.99
2018-08-12T01:32:49.138Z,1015.93
2018-08-12T01:33:49.162Z,1015.94
2018-08-12T01:34:49.156Z,1015.96
2018-08-12T01:35:49.217Z,1015.89
2018-08-12T01:36:49.201Z,1015.91
2018-08-12T01:37:49.179Z,1015.91
2018-08-12T01:38:49.216Z,1015.91
2018-08-12T01:39:49.210Z,1015.91
2018-08-12T01:40:49.276Z,1015.91
2018-08-12T01:41:49.256Z,1015.86
2018-08-12T01:42:49.234Z,1015.89
2018-08-12T01:43:49.262Z,1015.88
2018-08-12T01:44:49.270Z,1015.85
2018-08-12T01:45:49.261Z,1015.88
2018-08-12T01:46:49.283Z,1015.87
2018-08-12T01:47:49.283Z,1015.82
2018-08-12T01:48:49.324Z,1015.83
2018-08-12T01:49:49.302Z,1015.83
2018-08-12T01:50:49.308Z,1015.86
2018-08-12T01:51:49.332Z,1015.81
2018-08-12T01:52:49.352Z,1015.83
2018-08-12T01:53:49.373Z,1015.84
2018-08-12T01:54:49.419Z,1015.85
2018-08-12T01:55:49.385Z,1015.83
2018-08-12T01:56:49.366Z,1015.84
2018-08-12T01:57:49.387Z,1015.82
2018-08-12T01:58:49.407Z,1015.77
2018-08-12T01:59:49.394Z,1015.80
2018-08-12T02:00:49.457Z,1015.82
2018-08-12T02:01:49.455Z,1015.83
2018-08-12T02:02:49.426Z,1015.80
2018-08-12T02:03:49.487Z,1015.82
2018-08-12T02:04:49.470Z,1015.83
2018-08-12T02:05:49.496Z,1015.82
2018-08-12T02:06:49.553Z,1015.79
2018-08-12T02:07:49.494Z,1015.78
2018-08-12T02:08:49.508Z,1015.79
2018-08-12T02:09:49.538Z,1015.79
2018-08-12T02:10:49.526Z,1015.82
2018-08-12T02:11:49.577Z,1015.84
2018-08-12T02:12:49.582Z,1015.83
2018-08-12T02:13:49.566Z,1015.85
2018-08-12T02:14:49.570Z,1015.84
2018-08-12T02:15:49.597Z,1015.80
2018-08-12T02:16:49.650Z,1015.81
2018-08-12T02:17:49.604Z,1015.78
2018-08-12T02:18:49.623Z,1015.80
2018-08-12T02:19:49.626Z,1015.77
2018-08-12T02:20:49.685Z,1015.74
2018-08-12T02:21:49.667Z,1015.77
2018-08-12T02:22:49.673Z,1015.70
2018-08-12T02:23:49.724Z,1015.74
2018-08-12T02:24:49.730Z,1015.74
2018-08-12T02:25:49.698Z,1015.74
2018-08-12T02:26:49.687Z,1015.77
2018-08-12T02:27:49.738Z,1015.72
2018-08-12T02:28:49.729Z,1015.71
2018-08-12T02:29:49.735Z,1015.76
2018-08-12T02:30:49.759Z,1015.78
2018-08-12T02:31:49.770Z,1015.81
2018-08-12T02:32:49.804Z,1015.82
2018-08-12T02:33:49.781Z,1015.85
2018-08-12T02:34:49.815Z,1015.82
2018-08-12T02:35:49.795Z,1015.86
2018-08-12T02:36:49.806Z,1015.86
2018-08-12T02:37:49.874Z,1015.83
2018-08-12T02:38:49.859Z,1015.86
2018-08-12T02:39:49.878Z,1015.84
2018-08-12T02:40:49.875Z,1015.82
2018-08-12T02:41:49.856Z,1015.80
2018-08-12T02:42:49.865Z,1015.79
2018-08-12T02:43:49.925Z,1015.74
2018-08-12T02:44:49.881Z,1015.78
2018-08-12T02:45:49.934Z,1015.77
2018-08-12T02:46:49.957Z,1015.75
2018-08-12T02:47:49.911Z,1015.71
2018-08-12T02:48:49.977Z,1015.74
2018-08-12T02:49:49.966Z,1015.72
2018-08-12T02:50:49.976Z,1015.73
2018-08-12T02:51:49.985Z,1015.72
2018-08-12T02:52:49.995Z,1015.78
2018-08-12T02:53:50.049Z,1015.74
2018-08-12T02:54:50.019Z,1015.78
2018-08-12T02:55:50.068Z,1015.78
2018-08-12T02:56:50.037Z,1015.78
2018-08-12T02:57:50.033Z,1015.78
2018-08-12T02:58:50.046Z,1015.77
2018-08-12T02:59:50.056Z,1015.76
2018-08-12T03:00:50.127Z,1015.77
2018-08-12T03:01:50.063Z,1015.78
2018-08-12T03:02:50.085Z,1015.73
2018-08-12T03:03:50.079Z,1015.79
2018-08-12T03:04:50.116Z,1015.78
2018-08-12T03:05:50.153Z,1015.77
2018-08-12T03:06:50.158Z,1015.77
2018-08-12T03:07:50.135Z,1015.82
2018-08-12T03:08:50.155Z,1015.79
2018-08-12T03:09:50.156Z,1015.79
2018-08-12T03:10:50.176Z,1015.79
2018-08-12T03:11:50.225Z,1015.80
2018-08-12T03:12:50.225Z,1015.74
2018-08-12T03:13:50.203Z,1015.76
2018-08-12T03:14:50.205Z,1015.75
2018-08-12T03:15:50.269Z,1015.78
2018-08-12T03:16:50.221Z,1015.75
2018-08-12T03:17:50.256Z,1015.75
2018-08-12T03:18:50.285Z,1015.77
2018-08-12T03:19:50.271Z,1015.81
2018-08-12T03:20:50.277Z,1015.81
2018-08-12T03:21:50.290Z,1015.79
2018-08-12T03:22:50.314Z,1015.82
2018-08-12T03:23:50.314Z,1015.85
2018-08-12T03:24:50.337Z,1015.83
2018-08-12T03:25:50.332Z,1015.86
2018-08-12T03:26:50.356Z,1015.87
2018-08-12T03:27:50.379Z,1015.86
2018-08-12T03:28:50.387Z,1015.87
2018-08-12T03:29:50.439Z,1015.87
2018-08-12T03:30:50.380Z,1015.86
2018-08-12T03:31:50.409Z,1015.84
2018-08-12T03:32:50.429Z,1015.84
2018-08-12T03:33:50.419Z,1015.84
2018-08-12T03:34:50.479Z,1015.82
2018-08-12T03:35:50.442Z,1015.82
2018-08-12T03:36:50.457Z,1015.81
2018-08-12T03:37:50.500Z,1015.82
2018-08-12T03:38:50.463Z,1015.83
2018-08-12T03:39:50.515Z,1015.85
2018-08-12T03:40:50.528Z,1015.82
2018-08-12T03:41:50.504Z,1015.86
2018-08-12T03:42:50.522Z,1015.81
2018-08-12T03:43:50.520Z,1015.79
2018-08-12T03:44:50.566Z,1015.83
2018-08-12T03:45:50.613Z,1015.86
2018-08-12T03:46:50.551Z,1015.85
2018-08-12T03:47:50.578Z,1015.88
2018-08-12T03:48:50.637Z,1015.87
2018-08-12T03:49:50.588Z,1015.88
2018-08-12T03:50:50.606Z,1015.88
2018-08-12T03:51:50.662Z,1015.89
2018-08-12T03:52:50.604Z,1015.85
2018-08-12T03:53:50.625Z,1015.90
2018-08-12T03:54:50.620Z,1015.89
2018-08-12T03:55:50.646Z,1015.89
2018-08-12T03:56:50.704Z,1015.91
2018-08-12T03:57:50.706Z,1015.94
2018-08-12T03:58:50.687Z,1015.88
2018-08-12T03:59:50.716Z,1015.95
2018-08-12T04:00:50.719Z,1015.93
2018-08-12T04:01:50.716Z,1015.96
2018-08-12T04:02:50.795Z,1015.98
2018-08-12T04:03:50.761Z,1016.00
2018-08-12T04:04:50.742Z,1015.97
2018-08-12T04:05:50.735Z,1016.05
2018-08-12T04:06:50.787Z,1015.96
2018-08-12T04:07:50.774Z,1015.99
2018-08-12T04:08:50.815Z,1016.02
2018-08-12T04:09:50.811Z,1015.95
2018-08-12T04:10:50.806Z,1015.97
2018-08-12T04:11:50.814Z,1016.00
2018-08-12T04:12:50.826Z,1015.98
2018-08-12T04:13:50.879Z,1015.98
2018-08-12T04:14:50.856Z,1016.04
2018-08-12T04:15:50.864Z,1016.04
2018-08-12T04:16:50.876Z,1016.05
2018-08-12T04:17:50.903Z,1016.08
2018-08-12T04:18:50.981Z,1016.07
2018-08-12T04:19:50.977Z,1016.10
2018-08-12T04:20:50.932Z,1016.12
2018-08-12T04:21:50.938Z,1016.13
2018-08-12T04:22:50.969Z,1016.13
2018-08-12T04:23:50.953Z,1016.13
2018-08-12T04:24:51.025Z,1016.17
2018-08-12T04:25:50.977Z,1016.13
2018-08-12T04:26:50.990Z,1016.14
2018-08-12T04:27:50.997Z,1016.11
2018-08-12T04:28:51.033Z,1016.08
2018-08-12T04:29:51.023Z,1016.10
2018-08-12T04:30:51.053Z,1016.14
2018-08-12T04:31:51.068Z,1016.10
2018-08-12T04:32:51.056Z,1016.08
2018-08-12T04:33:51.057Z,1016.13
2018-08-12T04:34:51.070Z,1016.08
2018-08-12T04:35:51.112Z,1016.07
2018-08-12T04:36:51.125Z,1016.07
2018-08-12T04:37:51.130Z,1016.10
2018-08-12T04:38:51.113Z,1016.11
2018-08-12T04:39:51.135Z,1016.11
2018-08-12T04:40:51.131Z,1016.13
2018-08-12T04:41:51.142Z,1016.11
2018-08-12T04:42:51.181Z,1016.10
2018-08-12T04:43:51.178Z,1016.08
2018-08-12T04:44:51.179Z,1016.14
2018-08-12T04:45:51.231Z,1016.14
2018-08-12T04:46:51.250Z,1016.15
2018-08-12T04:47:51.220Z,1016.13
2018-08-12T04:48:51.263Z,1016.17
2018-08-12T04:49:51.226Z,1016.11
2018-08-12T04:50:51.265Z,1016.15
2018-08-12T04:51:51.242Z,1016.14
2018-08-12T04:52:51.272Z,1016.10
2018-08-12T04:53:51.301Z,1016.06
2018-08-12T04:54:51.511Z,1016.07
2018-08-12T04:55:51.315Z,1016.08
2018-08-12T04:56:51.298Z,1016.10
2018-08-12T04:57:51.343Z,1016.07
2018-08-12T04:58:51.338Z,1016.08
2018-08-12T04:59:51.374Z,1016.04
2018-08-12T05:00:51.371Z,1016.11
2018-08-12T05:01:51.357Z,1016.11
2018-08-12T05:02:51.365Z,1016.08
2018-08-12T05:03:51.398Z,1016.13
2018-08-12T05:04:51.436Z,1016.11
2018-08-12T05:05:51.591Z,1016.08
2018-08-12T05:06:51.446Z,1016.09
2018-08-12T05:07:51.434Z,1016.14
2018-08-12T05:08:51.445Z,1016.09
2018-08-12T05:09:51.505Z,1016.10
2018-08-12T05:10:51.460Z,1016.09
2018-08-12T05:11:51.518Z,1016.05
2018-08-12T05:12:51.480Z,1016.08
2018-08-12T05:13:51.486Z,1016.06
2018-08-12T05:14:51.540Z,1016.09
2018-08-12T05:15:51.561Z,1016.05
2018-08-12T05:16:51.699Z,1016.03
2018-08-12T05:17:51.541Z,1016.00
2018-08-12T05:18:51.566Z,1015.98
2018-08-12T05:19:51.586Z,1015.98
2018-08-12T05:20:51.694Z,1015.96
2018-08-12T05:21:51.646Z,1015.97
2018-08-12T05:22:51.596Z,1015.99
2018-08-12T05:23:51.625Z,1015.96
2018-08-12T05:24:51.633Z,1015.98
2018-08-12T05:25:51.652Z,1015.95
2018-08-12T05:26:51.707Z,1015.95
2018-08-12T05:27:51.669Z,1015.91
2018-08-12T05:28:51.666Z,1015.87
2018-08-12T05:29:51.727Z,1015.87
2018-08-12T05:30:51.751Z,1015.88
2018-08-12T05:31:51.703Z,1015.88
2018-08-12T05:32:51.789Z,1015.86
2018-08-12T05:33:51.773Z,1015.88
2018-08-12T05:34:51.756Z,1015.86
2018-08-12T05:35:51.841Z,1015.84
2018-08-12T05:36:51.826Z,1015.78
2018-08-12T05:37:51.820Z,1015.77
2018-08-12T05:38:51.795Z,1015.79
2018-08-12T05:39:51.811Z,1015.76
2018-08-12T05:40:51.813Z,1015.75
2018-08-12T05:41:51.882Z,1015.73
2018-08-12T05:42:51.952Z,1015.72
2018-08-12T05:43:51.897Z,1015.72
2018-08-12T05:44:51.877Z,1015.71
2018-08-12T05:45:51.891Z,1015.73
2018-08-12T05:46:51.893Z,1015.72
2018-08-12T05:47:51.959Z,1015.71
2018-08-12T05:48:51.921Z,1015.73
2018-08-12T05:49:51.931Z,1015.71
2018-08-12T05:50:51.948Z,1015.68
2018-08-12T05:51:51.960Z,1015.69
2018-08-12T05:52:52.001Z,1015.67
2018-08-12T05:53:51.978Z,1015.68
2018-08-12T05:54:52.017Z,1015.66
2018-08-12T05:55:52.055Z,1015.66
2018-08-12T05:56:52.047Z,1015.71
2018-08-12T05:57:52.104Z,1015.67
2018-08-12T05:58:52.037Z,1015.60
2018-08-12T05:59:52.093Z,1015.61
2018-08-12T06:00:52.095Z,1015.63
2018-08-12T06:01:52.099Z,1015.58
2018-08-12T06:02:52.177Z,1015.61
2018-08-12T06:03:52.138Z,1015.57
2018-08-12T06:04:52.250Z,1015.59
2018-08-12T06:05:52.159Z,1015.58
2018-08-12T06:06:52.358Z,1015.53
2018-08-12T06:07:52.143Z,1015.52
2018-08-12T06:08:52.303Z,1015.51
2018-08-12T06:09:52.172Z,1015.47
2018-08-12T06:10:52.236Z,1015.47
2018-08-12T06:11:52.188Z,1015.46
2018-08-12T06:12:52.251Z,1015.45
2018-08-12T06:13:52.239Z,1015.44
2018-08-12T06:14:52.251Z,1015.47
2018-08-12T06:15:52.307Z,1015.46
2018-08-12T06:16:52.315Z,1015.42
2018-08-12T06:17:52.346Z,1015.43
2018-08-12T06:18:52.287Z,1015.45
2018-08-12T06:19:52.351Z,1015.39
2018-08-12T06:20:52.342Z,1015.43
2018-08-12T06:21:52.396Z,1015.40
2018-08-12T06:22:52.594Z,1015.40
2018-08-12T06:23:52.359Z,1015.38
2018-08-12T06:24:52.541Z,1015.41
2018-08-12T06:25:52.393Z,1015.41
2018-08-12T06:26:52.448Z,1015.39
2018-08-12T06:27:52.477Z,1015.37
2018-08-12T06:28:52.442Z,1015.38
2018-08-12T06:29:52.444Z,1015.37
2018-08-12T06:30:52.466Z,1015.36
2018-08-12T06:31:52.485Z,1015.37
2018-08-12T06:32:52.528Z,1015.38
2018-08-12T06:33:52.504Z,1015.36
2018-08-12T06:34:52.498Z,1015.35
2018-08-12T06:35:52.506Z,1015.34
2018-08-12T06:36:52.541Z,1015.34
2018-08-12T06:37:52.630Z,1015.29
2018-08-12T06:38:52.818Z,1015.30
2018-08-12T06:39:52.579Z,1015.29
2018-08-12T06:40:52.592Z,1015.28
2018-08-12T06:41:52.606Z,1015.30
2018-08-12T06:42:52.635Z,1015.35
2018-08-12T06:43:52.646Z,1015.30
2018-08-12T06:44:52.755Z,1015.34
2018-08-12T06:45:52.656Z,1015.37
2018-08-12T06:46:52.676Z,1015.37
2018-08-12T06:47:52.723Z,1015.37
2018-08-12T06:48:52.687Z,1015.36
2018-08-12T06:49:52.706Z,1015.36
2018-08-12T06:50:52.729Z,1015.36
2018-08-12T06:51:52.761Z,1015.34
2018-08-12T06:52:52.773Z,1015.37
2018-08-12T06:53:53.115Z,1015.36
2018-08-12T06:54:52.773Z,1015.39
2018-08-12T06:55:53.855Z,1015.37
2018-08-12T06:56:52.791Z,1015.34
2018-08-12T06:57:53.001Z,1015.35
2018-08-12T06:58:52.842Z,1015.33
2018-08-12T06:59:52.834Z,1015.33
2018-08-12T07:00:53.331Z,1015.34
2018-08-12T07:01:52.929Z,1015.34
2018-08-12T07:02:52.863Z,1015.33
2018-08-12T07:03:52.920Z,1015.28
2018-08-12T07:04:53.078Z,1015.29
2018-08-12T07:05:52.912Z,1015.29
2018-08-12T07:06:52.946Z,1015.25
2018-08-12T07:07:53.139Z,1015.26
2018-08-12T07:08:54.354Z,1015.28
2018-08-12T07:09:53.030Z,1015.28
2018-08-12T07:10:52.997Z,1015.26
2018-08-12T07:11:52.982Z,1015.24
2018-08-12T07:12:53.591Z,1015.24
2018-08-12T07:13:53.047Z,1015.21
2018-08-12T07:14:53.042Z,1015.23
2018-08-12T07:15:53.053Z,1015.19
2018-08-12T07:16:53.065Z,1015.20
2018-08-12T07:17:53.115Z,1015.16
2018-08-12T07:18:53.128Z,1015.19
2018-08-12T07:19:53.214Z,1015.17
2018-08-12T07:20:54.120Z,1015.15
2018-08-12T07:21:53.145Z,1015.17
2018-08-12T07:22:53.241Z,1015.18
2018-08-12T07:23:53.212Z,1015.09
2018-08-12T07:24:53.169Z,1015.17
2018-08-12T07:25:53.191Z,1015.13
2018-08-12T07:26:53.206Z,1015.13
2018-08-12T07:27:53.194Z,1015.14
2018-08-12T07:28:53.256Z,1015.12
2018-08-12T07:29:53.230Z,1015.10
2018-08-12T07:30:53.260Z,1015.10
2018-08-12T07:31:53.277Z,1015.08
2018-08-12T07:32:53.291Z,1015.07
2018-08-12T07:33:53.322Z,1015.06
2018-08-12T07:34:53.311Z,1015.05
2018-08-12T07:35:53.321Z,1015.06
2018-08-12T07:36:53.346Z,1015.03
2018-08-12T07:37:53.428Z,1015.07
2018-08-12T07:38:53.383Z,1015.04
2018-08-12T07:39:53.363Z,1015.08
2018-08-12T07:40:53.508Z,1015.07
2018-08-12T07:41:53.433Z,1015.06
2018-08-12T07:42:53.389Z,1015.03
2018-08-12T07:43:53.472Z,1015.07
2018-08-12T07:44:53.421Z,1015.06
2018-08-12T07:45:53.487Z,1015.04
2018-08-12T07:46:53.473Z,1015.03
2018-08-12T07:47:53.480Z,1015.04
2018-08-12T07:48:53.577Z,1015.01
2018-08-12T07:49:53.494Z,1015.01
2018-08-12T07:50:53.546Z,1015.01
2018-08-12T07:51:53.510Z,1015.01
2018-08-12T07:52:53.597Z,1015.01
2018-08-12T07:53:53.606Z,1014.98
2018-08-12T07:54:53.628Z,1014.98
2018-08-12T07:55:53.654Z,1014.98
2018-08-12T07:56:53.788Z,1014.97
2018-08-12T07:57:53.605Z,1015.02
2018-08-12T07:58:53.605Z,1015.00
2018-08-12T07:59:53.688Z,1014.98
2018-08-12T08:00:53.635Z,1014.93
2018-08-12T08:01:53.698Z,1014.92
2018-08-12T08:02:53.659Z,1014.95
2018-08-12T08:03:53.681Z,1014.97
2018-08-12T08:04:53.734Z,1014.96
2018-08-12T08:05:53.714Z,1014.94
2018-08-12T08:06:53.731Z,1014.96
2018-08-12T08:07:53.714Z,1014.91
2018-08-12T08:08:53.726Z,1014.91
2018-08-12T08:09:53.735Z,1014.91
2018-08-12T08:10:53.792Z,1014.88
2018-08-12T08:11:53.995Z,1014.90
2018-08-12T08:12:53.797Z,1014.91
2018-08-12T08:13:53.803Z,1014.94
2018-08-12T08:14:53.811Z,1014.91
2018-08-12T08:15:53.840Z,1014.91
2018-08-12T08:16:53.928Z,1014.91
2018-08-12T08:17:53.858Z,1014.88
2018-08-12T08:18:53.873Z,1014.88
2018-08-12T08:19:53.995Z,1014.86
2018-08-12T08:20:53.893Z,1014.88
2018-08-12T08:21:53.952Z,1014.91
2018-08-12T08:22:54.122Z,1014.85
2018-08-12T08:23:53.925Z,1014.88
2018-08-12T08:24:53.972Z,1014.87
2018-08-12T08:25:54.036Z,1014.84
2018-08-12T08:26:54.029Z,1014.85
2018-08-12T08:27:53.991Z,1014.85
2018-08-12T08:28:54.016Z,1014.87
2018-08-12T08:29:54.003Z,1014.90
2018-08-12T08:30:54.082Z,1014.95
2018-08-12T08:31:54.190Z,1014.90
2018-08-12T08:32:54.035Z,1014.87
2018-08-12T08:33:54.083Z,1014.86
2018-08-12T08:34:54.071Z,1014.83
2018-08-12T08:35:54.101Z,1014.83
2018-08-12T08:36:54.109Z,1014.81
2018-08-12T08:37:54.134Z,1014.76
2018-08-12T08:38:54.360Z,1014.78
2018-08-12T08:39:54.261Z,1014.78
2018-08-12T08:40:54.155Z,1014.82
2018-08-12T08:41:54.149Z,1014.84
2018-08-12T08:42:54.166Z,1014.77
2018-08-12T08:43:54.301Z,1014.80
2018-08-12T08:44:54.250Z,1014.77
2018-08-12T08:45:54.236Z,1014.81
2018-08-12T08:46:54.241Z,1014.81
2018-08-12T08:47:54.235Z,1014.75
2018-08-12T08:48:54.249Z,1014.79
2018-08-12T08:49:54.287Z,1014.78
2018-08-12T08:50:54.317Z,1014.74
2018-08-12T08:51:54.318Z,1014.75
2018-08-12T08:52:54.299Z,1014.76
2018-08-12T08:53:54.309Z,1014.76
2018-08-12T08:54:54.487Z,1014.70
2018-08-12T08:55:54.544Z,1014.69
2018-08-12T08:56:54.402Z,1014.69
2018-08-12T08:57:54.365Z,1014.72
2018-08-12T08:58:54.381Z,1014.70
2018-08-12T08:59:54.589Z,1014.71
2018-08-12T09:00:54.398Z,1014.72
2018-08-12T09:01:54.427Z,1014.71
2018-08-12T09:02:54.436Z,1014.73
2018-08-12T09:03:54.460Z,1014.69
2018-08-12T09:04:54.447Z,1014.70
2018-08-12T09:05:54.450Z,1014.68
2018-08-12T09:06:54.476Z,1014.65
2018-08-12T09:07:54.530Z,1014.62
2018-08-12T09:08:54.691Z,1014.61
2018-08-12T09:09:54.706Z,1014.65
2018-08-12T09:10:54.507Z,1014.61
2018-08-12T09:11:54.540Z,1014.62
2018-08-12T09:12:54.646Z,1014.61
2018-08-12T09:13:54.580Z,1014.57
2018-08-12T09:14:54.592Z,1014.58
2018-08-12T09:15:54.721Z,1014.56
2018-08-12T09:16:54.629Z,1014.54
2018-08-12T09:17:54.676Z,1014.51
2018-08-12T09:18:54.751Z,1014.51
2018-08-12T09:19:54.637Z,1014.45
2018-08-12T09:20:54.695Z,1014.52
2018-08-12T09:21:54.682Z,1014.45
2018-08-12T09:22:54.721Z,1014.47
2018-08-12T09:23:54.915Z,1014.49
2018-08-12T09:24:54.718Z,1014.45
2018-08-12T09:25:54.894Z,1014.45
2018-08-12T09:26:54.734Z,1014.47
2018-08-12T09:27:55.236Z,1014.44
2018-08-12T09:28:57.919Z,1014.44
2018-08-12T09:30:10.082Z,1014.37
2018-08-12T09:30:54.820Z,1014.34
2018-08-12T09:31:54.892Z,1014.35
2018-08-12T09:32:54.813Z,1014.34
2018-08-12T09:33:54.817Z,1014.35
2018-08-12T09:34:54.921Z,1014.30
2018-08-12T09:35:54.935Z,1014.32
2018-08-12T09:36:54.915Z,1014.29
2018-08-12T09:37:54.918Z,1014.30
2018-08-12T09:38:54.922Z,1014.29
2018-08-12T09:39:54.944Z,1014.24
2018-08-12T09:40:54.987Z,1014.28
2018-08-12T09:41:54.959Z,1014.33
2018-08-12T09:42:54.931Z,1014.32
2018-08-12T09:43:54.984Z,1014.31
2018-08-12T09:44:54.948Z,1014.27
2018-08-12T09:45:55.021Z,1014.27
2018-08-12T09:46:54.969Z,1014.28
2018-08-12T09:47:54.995Z,1014.25
2018-08-12T09:48:55.518Z,1014.26
2018-08-12T09:49:55.067Z,1014.29
2018-08-12T09:50:55.141Z,1014.25
2018-08-12T09:51:55.137Z,1014.20
2018-08-12T09:52:55.064Z,1014.18
2018-08-12T09:53:55.064Z,1014.26
2018-08-12T09:54:55.159Z,1014.20
2018-08-12T09:55:55.139Z,1014.19
2018-08-12T09:56:55.156Z,1014.11
2018-08-12T09:57:55.151Z,1014.11
2018-08-12T09:58:55.150Z,1014.11
2018-08-12T09:59:55.184Z,1014.12
2018-08-12T10:00:55.203Z,1014.05
2018-08-12T10:01:55.634Z,1014.02
2018-08-12T10:02:55.197Z,1014.08
2018-08-12T10:03:55.210Z,1014.06
2018-08-12T10:04:55.242Z,1014.08
2018-08-12T10:05:55.627Z,1014.08
2018-08-12T10:06:55.260Z,1014.06
2018-08-12T10:07:55.301Z,1014.07
2018-08-12T10:08:55.290Z,1014.04
2018-08-12T10:09:55.279Z,1014.07
2018-08-12T10:10:55.299Z,1013.99
2018-08-12T10:11:55.369Z,1013.98
2018-08-12T10:12:55.313Z,1013.98
2018-08-12T10:13:55.343Z,1013.95
2018-08-12T10:14:55.431Z,1013.86
2018-08-12T10:15:55.396Z,1013.89
2018-08-12T10:16:55.393Z,1013.90
2018-08-12T10:17:55.416Z,1013.91
2018-08-12T10:18:55.419Z,1013.91
2018-08-12T10:19:55.720Z,1013.84
2018-08-12T10:20:55.450Z,1013.81
2018-08-12T10:21:55.582Z,1013.80
2018-08-12T10:22:55.627Z,1013.79
2018-08-12T10:23:55.576Z,1013.77
2018-08-12T10:24:55.540Z,1013.73
2018-08-12T10:25:55.605Z,1013.67
2018-08-12T10:26:55.589Z,1013.67
2018-08-12T10:27:55.510Z,1013.63
2018-08-12T10:28:55.534Z,1013.67
2018-08-12T10:29:56.386Z,1013.61
2018-08-12T10:30:55.592Z,1013.61
2018-08-12T10:31:55.565Z,1013.62
2018-08-12T10:32:56.882Z,1013.65
2018-08-12T10:33:57.886Z,1013.67
2018-08-12T10:34:55.770Z,1013.63
2018-08-12T10:35:57.409Z,1013.68
2018-08-12T10:36:55.726Z,1013.67
2018-08-12T10:37:56.085Z,1013.59
2018-08-12T10:38:55.718Z,1013.64
2018-08-12T10:39:55.674Z,1013.63
2018-08-12T10:40:55.878Z,1013.58
2018-08-12T10:41:55.699Z,1013.52
2018-08-12T10:42:55.711Z,1013.56
2018-08-12T10:43:56.565Z,1013.50
2018-08-12T10:44:55.813Z,1013.46
2018-08-12T10:45:55.913Z,1013.50
2018-08-12T10:46:55.750Z,1013.52
2018-08-12T10:47:55.829Z,1013.53
2018-08-12T10:48:55.804Z,1013.52
2018-08-12T10:49:55.849Z,1013.48
2018-08-12T10:50:56.523Z,1013.45
2018-08-12T10:51:55.884Z,1013.41
2018-08-12T10:52:55.846Z,1013.44
2018-08-12T10:53:56.155Z,1013.42
2018-08-12T10:54:56.885Z,1013.46
2018-08-12T10:55:55.885Z,1013.44
2018-08-12T10:56:55.940Z,1013.38
2018-08-12T10:57:56.103Z,1013.39
2018-08-12T10:58:55.925Z,1013.37
2018-08-12T10:59:56.232Z,1013.29
2018-08-12T11:00:56.233Z,1013.27
2018-08-12T11:01:56.043Z,1013.28
2018-08-12T11:02:55.994Z,1013.35
2018-08-12T11:03:55.982Z,1013.33
2018-08-12T11:04:56.269Z,1013.36
2018-08-12T11:05:56.196Z,1013.32
2018-08-12T11:06:56.075Z,1013.30
2018-08-12T11:07:56.079Z,1013.30
2018-08-12T11:08:56.094Z,1013.21
2018-08-12T11:09:56.091Z,1013.25
2018-08-12T11:10:56.105Z,1013.17
2018-08-12T11:11:56.096Z,1013.18
2018-08-12T11:12:56.245Z,1013.14
2018-08-12T11:13:56.583Z,1013.17
2018-08-12T11:14:56.141Z,1013.17
2018-08-12T11:15:56.545Z,1013.19
2018-08-12T11:16:56.417Z,1013.15
2018-08-12T11:17:56.238Z,1013.15
2018-08-12T11:18:56.196Z,1013.13
2018-08-12T11:19:56.202Z,1013.12
2018-08-12T11:20:56.255Z,1013.09
2018-08-12T11:21:56.271Z,1013.10
2018-08-12T11:22:56.382Z,1013.09
2018-08-12T11:23:56.284Z,1013.10
2018-08-12T11:24:56.795Z,1013.04
2018-08-12T11:25:56.717Z,1013.08
2018-08-12T11:26:56.354Z,1013.07
2018-08-12T11:27:56.364Z,1013.03
2018-08-12T11:28:56.375Z,1013.02
2018-08-12T11:29:56.744Z,1013.02
2018-08-12T11:30:56.351Z,1012.99
2018-08-12T11:31:56.387Z,1012.98
2018-08-12T11:32:56.579Z,1012.96
2018-08-12T11:33:56.449Z,1012.96
2018-08-12T11:34:56.494Z,1012.97
2018-08-12T11:35:56.436Z,1012.86
2018-08-12T11:36:56.470Z,1012.93
2018-08-12T11:37:56.467Z,1012.84
2018-08-12T11:38:56.500Z,1012.82
2018-08-12T11:39:56.793Z,1012.83
2018-08-12T11:40:56.503Z,1012.78
2018-08-12T11:41:56.555Z,1012.78
2018-08-12T11:42:56.635Z,1012.75
2018-08-12T11:43:56.572Z,1012.78
2018-08-12T11:44:57.141Z,1012.77
2018-08-12T11:45:56.585Z,1012.75
2018-08-12T11:46:56.600Z,1012.74
2018-08-12T11:47:56.662Z,1012.74
2018-08-12T11:48:57.202Z,1012.68
2018-08-12T11:49:57.543Z,1012.66
2018-08-12T11:50:56.707Z,1012.63
2018-08-12T11:51:56.681Z,1012.67
2018-08-12T11:52:56.699Z,1012.61
2018-08-12T11:53:56.692Z,1012.62
2018-08-12T11:54:56.698Z,1012.63
2018-08-12T11:55:57.383Z,1012.55
2018-08-12T11:56:56.919Z,1012.52
2018-08-12T11:57:56.774Z,1012.54
2018-08-12T11:58:56.783Z,1012.51
2018-08-12T11:59:59.902Z,1012.52
2018-08-12T12:00:56.838Z,1012.50
2018-08-12T12:01:57.028Z,1012.46
2018-08-12T12:02:56.810Z,1012.42
2018-08-12T12:03:56.934Z,1012.42
2018-08-12T12:04:56.943Z,1012.45
2018-08-12T12:05:56.870Z,1012.40